Time;durP1;ratioP1;P1;durP2;ratioP2;P2;SDS_P1;SDS_P2;PMS_P1;PMS_P2;Temp;Humidity;BMP_temperature;BMP_pressure;BME280_temperature;BME280_humidity;BME280_pressure;Samples;Min_cycle;Max_cycle;Signal;HPM_P1;HPM_P2
2023/01/16 00:01:23;;;;;;;8.27;4.18;;;4.10;99.90;;;;;;4958900;28;20062;-72
2023/01/16 00:03:50;;;;;;;6.53;3.55;;;4.10;99.90;;;;;;4992519;28;20050;-72
2023/01/16 00:06:17;;;;;;;5.00;3.13;;;4.20;99.90;;;;;;4978190;28;20462;-72
2023/01/16 00:08:44;;;;;;;7.00;3.30;;;4.20;99.90;;;;;;4977513;28;20046;-73
2023/01/16 00:11:13;;;;;;;6.97;3.75;;;4.20;99.90;;;;;;4995021;28;20054;-72
2023/01/16 00:13:40;;;;;;;7.65;3.63;;;4.20;99.90;;;;;;4978222;28;20069;-72
2023/01/16 00:16:07;;;;;;;7.22;3.70;;;4.30;99.90;;;;;;4977218;28;20081;-72
2023/01/16 00:18:35;;;;;;;6.38;3.42;;;4.20;99.90;;;;;;4994735;28;20077;-72
2023/01/16 00:21:02;;;;;;;5.38;3.80;;;4.30;99.90;;;;;;4974744;28;20407;-72
2023/01/16 00:23:29;;;;;;;7.97;3.50;;;4.20;99.90;;;;;;4974328;28;20074;-72
2023/01/16 00:25:56;;;;;;;5.88;3.95;;;4.20;99.90;;;;;;4975524;28;20050;-71
2023/01/16 00:28:24;;;;;;;6.32;4.35;;;4.30;99.90;;;;;;4994475;28;20042;-68
2023/01/16 00:30:51;;;;;;;5.75;3.97;;;4.30;99.90;;;;;;4979281;28;20047;-69
2023/01/16 00:33:19;;;;;;;5.90;4.00;;;4.30;99.90;;;;;;4973943;28;20058;-69
2023/01/16 00:35:47;;;;;;;10.77;4.70;;;4.30;99.90;;;;;;4974074;28;20453;-68
2023/01/16 00:38:14;;;;;;;7.07;5.10;;;4.30;99.90;;;;;;4974772;28;20507;-68
2023/01/16 00:40:41;;;;;;;7.20;4.07;;;4.30;99.90;;;;;;4974144;28;20054;-67
2023/01/16 00:43:08;;;;;;;7.72;4.00;;;4.20;99.90;;;;;;4973928;28;20051;-69
2023/01/16 00:45:36;;;;;;;5.93;4.28;;;4.20;99.90;;;;;;4974258;28;20105;-68
2023/01/16 00:48:03;;;;;;;7.85;4.43;;;4.10;99.90;;;;;;4976005;28;20056;-68
2023/01/16 00:50:30;;;;;;;5.50;3.88;;;4.00;99.90;;;;;;4975179;28;20069;-68
2023/01/16 00:52:57;;;;;;;6.53;3.88;;;3.90;99.90;;;;;;4973935;28;20047;-68
2023/01/16 00:55:24;;;;;;;5.50;3.80;;;3.80;99.90;;;;;;4994191;28;20057;-68
2023/01/16 00:57:51;;;;;;;6.22;4.10;;;3.80;99.90;;;;;;4976561;28;20050;-68
2023/01/16 01:00:20;;;;;;;10.85;4.13;;;3.80;99.90;;;;;;4977018;28;20054;-68
2023/01/16 01:02:50;;;;;;;5.95;3.80;;;3.80;99.90;;;;;;4976672;28;20042;-69
2023/01/16 01:05:18;;;;;;;6.13;3.72;;;3.80;99.90;;;;;;4976705;28;20058;-68
2023/01/16 01:07:45;;;;;;;6.78;3.70;;;3.70;99.90;;;;;;4976974;28;20411;-68
2023/01/16 01:10:12;;;;;;;7.15;3.78;;;3.70;99.90;;;;;;4993564;28;20042;-68
2023/01/16 01:12:39;;;;;;;7.60;3.83;;;3.60;99.90;;;;;;4993153;28;20418;-68
2023/01/16 01:15:07;;;;;;;5.78;3.50;;;3.60;99.90;;;;;;4976769;28;20069;-68
2023/01/16 01:17:34;;;;;;;6.07;3.42;;;3.60;99.90;;;;;;4976873;28;20101;-68
2023/01/16 01:20:02;;;;;;;6.40;3.28;;;3.60;99.90;;;;;;4992907;28;20042;-69
2023/01/16 01:22:29;;;;;;;5.80;4.05;;;3.60;99.90;;;;;;4993618;28;20069;-69
2023/01/16 01:24:56;;;;;;;4.60;3.17;;;3.50;99.90;;;;;;4975797;28;20073;-68
2023/01/16 01:27:23;;;;;;;7.60;3.40;;;3.50;99.90;;;;;;4976300;28;20174;-68
2023/01/16 01:29:50;;;;;;;6.40;3.45;;;3.50;99.90;;;;;;4993464;28;20054;-68
2023/01/16 01:32:16;;;;;;;8.15;3.67;;;3.50;99.90;;;;;;4992796;28;20877;-68
2023/01/16 01:34:43;;;;;;;9.25;3.83;;;3.50;99.90;;;;;;4976480;28;20061;-68
2023/01/16 01:37:12;;;;;;;6.60;4.03;;;3.50;99.90;;;;;;4993218;28;20050;-68
2023/01/16 01:39:39;;;;;;;5.95;3.70;;;3.50;99.90;;;;;;4975485;28;20520;-69
2023/01/16 01:44:54;;;;;;;7.15;2.72;;;3.50;99.90;;;;;;4992368;28;20060;-68
2023/01/16 01:47:27;;;;;;;6.20;3.58;;;3.50;99.90;;;;;;4992616;28;20046;-69
2023/01/16 01:49:55;;;;;;;4.95;3.17;;;3.40;99.90;;;;;;4976137;28;20058;-69
2023/01/16 01:52:25;;;;;;;6.15;2.75;;;3.40;99.90;;;;;;4974430;28;20487;-68
2023/01/16 01:54:57;;;;;;;5.57;3.40;;;3.40;99.90;;;;;;4974205;28;20050;-68
2023/01/16 01:57:29;;;;;;;4.72;3.13;;;3.40;99.90;;;;;;4973105;28;20085;-68
2023/01/16 02:00:00;;;;;;;5.93;3.70;;;3.40;99.90;;;;;;4974457;28;20053;-69
2023/01/16 02:02:33;;;;;;;8.20;3.65;;;3.40;99.90;;;;;;4970438;28;20065;-69
2023/01/16 02:05:02;;;;;;;5.28;3.10;;;3.40;99.90;;;;;;4974803;28;20054;-68
2023/01/16 02:07:31;;;;;;;8.02;2.92;;;3.40;99.90;;;;;;4974102;28;20043;-68
2023/01/16 02:10:06;;;;;;;5.75;3.15;;;3.50;99.90;;;;;;4957420;28;20113;-68
2023/01/16 02:12:33;;;;;;;5.70;2.78;;;3.40;99.90;;;;;;4974453;28;20515;-68
2023/01/16 02:15:01;;;;;;;5.78;3.80;;;3.50;99.90;;;;;;4969932;28;20495;-69
2023/01/16 02:20:19;;;;;;;5.10;3.08;;;3.50;99.90;;;;;;4973867;28;20049;-68
2023/01/16 02:23:11;;;;;;;6.68;3.00;;;3.50;99.90;;;;;;4974857;28;20042;-68
2023/01/16 02:26:24;;;;;;;4.75;2.70;;;3.50;99.90;;;;;;4973053;28;20054;-68
2023/01/16 02:29:22;;;;;;;6.70;3.00;;;3.50;99.90;;;;;;4991397;28;20105;-68
2023/01/16 02:31:59;;;;;;;8.35;3.08;;;3.50;99.90;;;;;;4973946;28;20039;-68
2023/01/16 02:34:42;;;;;;;10.90;3.17;;;3.50;99.90;;;;;;4974147;28;20491;-69
2023/01/16 02:37:21;;;;;;;6.97;2.60;;;3.60;99.90;;;;;;4956342;28;20073;-68
2023/01/16 02:40:00;;;;;;;5.43;3.03;;;3.60;99.90;;;;;;4992019;28;20472;-67
2023/01/16 02:42:33;;;;;;;7.90;2.80;;;3.60;99.90;;;;;;4991792;28;20042;-68
2023/01/16 02:45:05;;;;;;;8.63;3.90;;;3.60;99.90;;;;;;4975574;28;20050;-67
2023/01/16 02:47:39;;;;;;;5.43;3.30;;;3.70;99.90;;;;;;4975335;28;20065;-68
2023/01/16 02:50:12;;;;;;;5.53;3.08;;;3.70;99.90;;;;;;4991567;28;20046;-68
2023/01/16 02:52:45;;;;;;;5.43;2.80;;;3.70;99.90;;;;;;4992018;28;20088;-69
2023/01/16 02:55:17;;;;;;;9.45;2.85;;;3.70;99.90;;;;;;4991802;28;20494;-68
2023/01/16 02:57:49;;;;;;;7.35;3.10;;;3.70;99.90;;;;;;4974382;28;20051;-69
2023/01/16 03:00:19;;;;;;;6.32;3.00;;;3.70;99.90;;;;;;4991961;28;20144;-68
2023/01/16 03:02:47;;;;;;;4.10;2.80;;;3.70;99.90;;;;;;4974814;28;20049;-69
2023/01/16 03:05:14;;;;;;;4.93;2.50;;;3.80;99.90;;;;;;4988368;28;20054;-69
2023/01/16 03:08:20;;;;;;;6.47;3.00;;;3.80;99.90;;;;;;4992010;28;20053;-68
2023/01/16 03:11:08;;;;;;;5.05;3.22;;;3.80;99.90;;;;;;4982911;28;20395;-68
2023/01/16 03:13:53;;;;;;;5.40;3.50;;;3.80;99.90;;;;;;4992247;28;20410;-69
2023/01/16 03:16:28;;;;;;;8.15;2.95;;;3.70;99.90;;;;;;4974498;28;20046;-68
2023/01/16 03:19:06;;;;;;;11.68;3.45;;;3.70;99.90;;;;;;4991056;28;20042;-68
2023/01/16 03:21:43;;;;;;;4.40;2.78;;;3.70;99.90;;;;;;4969907;28;20062;-69
2023/01/16 03:24:19;;;;;;;8.57;3.30;;;3.70;99.90;;;;;;4973586;28;20050;-69
2023/01/16 03:26:48;;;;;;;9.48;3.58;;;3.70;99.90;;;;;;4969495;28;20051;-68
2023/01/16 03:29:20;;;;;;;8.05;3.30;;;3.70;99.90;;;;;;4971223;28;20105;-69
2023/01/16 03:31:50;;;;;;;6.13;3.13;;;3.70;99.90;;;;;;4972864;28;20051;-68
2023/01/16 03:34:25;;;;;;;5.97;3.10;;;3.70;99.90;;;;;;4971862;28;20522;-69
2023/01/16 03:36:57;;;;;;;7.60;3.42;;;3.70;99.90;;;;;;4956421;28;20210;-68
2023/01/16 03:39:29;;;;;;;5.13;2.90;;;3.70;99.90;;;;;;4974504;28;20051;-68
2023/01/16 03:42:02;;;;;;;5.20;3.22;;;3.60;99.90;;;;;;4991689;28;20425;-68
2023/01/16 03:44:34;;;;;;;5.93;3.00;;;3.60;99.90;;;;;;4991621;28;20395;-68
2023/01/16 03:47:03;;;;;;;8.55;3.30;;;3.50;99.90;;;;;;4973058;28;20051;-68
2023/01/16 03:49:35;;;;;;;5.97;2.72;;;3.50;99.90;;;;;;4973203;28;20054;-70
2023/01/16 03:52:05;;;;;;;7.88;3.35;;;3.40;99.90;;;;;;4956310;28;20070;-70
2023/01/16 03:54:43;;;;;;;5.40;2.85;;;3.40;99.90;;;;;;4972656;28;20054;-69
2023/01/16 03:57:14;;;;;;;8.20;3.65;;;3.40;99.90;;;;;;4970855;28;20050;-68
2023/01/16 03:59:45;;;;;;;7.13;2.72;;;3.40;99.90;;;;;;4972602;28;20058;-69
2023/01/16 04:02:16;;;;;;;6.75;2.95;;;3.40;99.90;;;;;;4973107;28;20043;-69
2023/01/16 04:04:50;;;;;;;5.03;3.03;;;3.50;99.90;;;;;;4969575;28;20050;-68
2023/01/16 04:07:25;;;;;;;11.13;3.53;;;3.50;99.90;;;;;;4974182;28;20054;-69
2023/01/16 04:09:57;;;;;;;5.40;3.25;;;3.50;99.90;;;;;;4973074;28;20055;-69
2023/01/16 04:12:27;;;;;;;7.75;3.13;;;3.50;99.90;;;;;;4995114;28;20082;-69
2023/01/16 04:14:58;;;;;;;8.18;3.22;;;3.60;99.90;;;;;;4977487;28;20427;-68
2023/01/16 04:17:26;;;;;;;6.43;3.75;;;3.60;99.90;;;;;;4994904;28;20058;-68
2023/01/16 04:19:54;;;;;;;6.25;3.58;;;3.60;99.90;;;;;;4977868;28;20076;-68
2023/01/16 04:22:23;;;;;;;7.75;3.30;;;3.60;99.90;;;;;;4977326;28;20057;-68
2023/01/16 04:24:51;;;;;;;8.57;3.80;;;3.60;99.90;;;;;;4994571;28;20067;-68
2023/01/16 04:27:19;;;;;;;9.57;3.72;;;3.60;99.90;;;;;;4994920;28;20042;-68
2023/01/16 04:29:46;;;;;;;9.98;3.42;;;3.60;99.90;;;;;;4993889;28;20058;-69
2023/01/16 04:32:13;;;;;;;4.82;3.33;;;3.60;99.90;;;;;;4977359;28;20042;-68
2023/01/16 04:34:40;;;;;;;5.28;3.63;;;3.60;99.90;;;;;;4994424;28;20049;-68
2023/01/16 04:37:10;;;;;;;7.53;3.30;;;3.60;99.90;;;;;;4977184;28;20450;-69
2023/01/16 04:39:36;;;;;;;8.00;3.92;;;3.60;99.90;;;;;;4994413;28;20050;-69
2023/01/16 04:42:04;;;;;;;6.45;3.63;;;3.60;99.90;;;;;;4976789;28;20130;-68
2023/01/16 04:44:31;;;;;;;6.55;3.70;;;3.60;99.90;;;;;;4994257;28;20047;-67
2023/01/16 04:46:57;;;;;;;9.48;4.47;;;3.70;99.90;;;;;;4977202;28;20050;-68
2023/01/16 04:49:24;;;;;;;6.05;4.28;;;3.70;99.90;;;;;;4976385;28;20049;-69
2023/01/16 04:51:52;;;;;;;6.68;4.07;;;3.70;99.90;;;;;;4994387;28;20388;-68
2023/01/16 04:54:20;;;;;;;7.25;4.35;;;3.70;99.90;;;;;;4977151;28;20065;-68
2023/01/16 04:56:47;;;;;;;6.80;4.63;;;3.70;99.90;;;;;;4993572;28;20054;-67
2023/01/16 04:59:15;;;;;;;6.60;4.38;;;3.80;99.90;;;;;;4993912;28;20050;-68
2023/01/16 05:01:42;;;;;;;9.27;5.07;;;3.80;99.90;;;;;;4977063;28;20497;-69
2023/01/16 05:04:10;;;;;;;8.55;4.85;;;3.80;99.90;;;;;;4976171;28;20042;-69
2023/01/16 05:06:37;;;;;;;7.38;5.30;;;3.80;99.90;;;;;;4974979;28;20093;-70
2023/01/16 05:09:05;;;;;;;10.52;5.40;;;3.80;99.90;;;;;;4976726;28;20049;-68
2023/01/16 05:11:34;;;;;;;13.90;5.95;;;3.80;99.90;;;;;;4993366;28;20050;-69
2023/01/16 05:14:02;;;;;;;8.10;5.20;;;3.80;99.90;;;;;;4975463;28;20051;-69
2023/01/16 05:16:29;;;;;;;12.95;5.20;;;3.80;99.90;;;;;;4973565;28;20066;-69
2023/01/16 05:18:56;;;;;;;6.75;4.80;;;3.80;99.90;;;;;;4972899;28;20066;-68
2023/01/16 05:21:23;;;;;;;9.57;6.00;;;3.70;99.90;;;;;;4973691;28;20391;-69
2023/01/16 05:23:49;;;;;;;10.60;5.93;;;3.70;99.90;;;;;;4975021;28;20118;-68
2023/01/16 05:26:16;;;;;;;7.82;5.28;;;3.70;99.90;;;;;;4974996;28;20054;-68
2023/01/16 05:28:45;;;;;;;9.68;6.00;;;3.60;99.90;;;;;;4973543;28;20062;-67
2023/01/16 05:31:12;;;;;;;10.13;5.75;;;3.60;99.90;;;;;;4974544;28;20456;-69
2023/01/16 05:33:39;;;;;;;10.73;6.13;;;3.50;99.90;;;;;;4975185;28;20047;-68
2023/01/16 05:36:06;;;;;;;12.77;7.47;;;3.40;99.90;;;;;;4975052;28;20415;-69
2023/01/16 05:38:33;;;;;;;10.88;6.32;;;3.40;99.90;;;;;;4972835;28;20050;-68
2023/01/16 05:41:00;;;;;;;14.70;6.68;;;3.30;99.90;;;;;;4974784;28;20384;-68
2023/01/16 05:43:27;;;;;;;11.55;5.38;;;3.30;99.90;;;;;;4970950;28;20097;-68
2023/01/16 05:45:55;;;;;;;10.07;5.38;;;3.20;99.90;;;;;;4972650;28;20750;-68
2023/01/16 05:48:23;;;;;;;8.75;5.38;;;3.20;99.90;;;;;;4974932;28;20133;-68
2023/01/16 05:50:50;;;;;;;9.45;5.93;;;3.10;99.90;;;;;;4970079;28;20050;-69
2023/01/16 05:53:17;;;;;;;10.52;5.93;;;3.10;99.90;;;;;;4989065;28;20042;-69
2023/01/16 05:55:46;;;;;;;15.18;6.65;;;3.10;99.90;;;;;;4971106;28;20069;-69
2023/01/16 05:58:15;;;;;;;12.07;6.65;;;3.10;99.90;;;;;;4971974;28;20050;-69
2023/01/16 06:00:42;;;;;;;13.88;6.38;;;3.00;99.90;;;;;;4988830;28;20055;-69
2023/01/16 06:03:11;;;;;;;13.05;6.95;;;2.90;99.90;;;;;;4986656;28;20399;-71
2023/01/16 06:05:37;;;;;;;12.07;6.40;;;2.90;99.90;;;;;;4990594;28;20097;-69
2023/01/16 06:08:05;;;;;;;12.65;7.78;;;2.90;99.90;;;;;;4988380;28;20072;-69
2023/01/16 06:10:32;;;;;;;15.32;7.53;;;3.00;99.90;;;;;;4971451;28;20121;-69
2023/01/16 06:13:01;;;;;;;16.35;7.50;;;3.00;99.90;;;;;;4988614;28;20049;-68
2023/01/16 06:15:28;;;;;;;13.38;7.00;;;3.10;99.90;;;;;;4987099;28;20053;-69
2023/01/16 06:17:56;;;;;;;14.82;7.85;;;3.00;99.90;;;;;;4986794;28;20046;-68
2023/01/16 06:20:24;;;;;;;16.08;7.47;;;3.00;99.90;;;;;;4985246;28;20468;-70
2023/01/16 06:22:51;;;;;;;14.68;7.80;;;2.90;99.90;;;;;;4971193;28;20691;-70
2023/01/16 06:25:18;;;;;;;13.30;7.75;;;2.90;99.90;;;;;;4961959;28;20062;-69
2023/01/16 06:27:48;;;;;;;15.85;8.00;;;2.90;99.90;;;;;;4966288;28;20723;-69
2023/01/16 06:30:16;;;;;;;12.60;8.10;;;2.90;99.90;;;;;;4972404;28;20043;-70
2023/01/16 06:32:43;;;;;;;16.35;8.65;;;3.00;99.90;;;;;;4972375;28;20055;-69
2023/01/16 06:35:10;;;;;;;15.05;8.73;;;3.00;99.90;;;;;;4957387;28;20054;-69
2023/01/16 06:37:39;;;;;;;12.40;7.75;;;3.10;99.90;;;;;;4970408;28;20054;-69
2023/01/16 06:40:08;;;;;;;14.52;9.18;;;3.10;99.90;;;;;;4968742;28;20055;-69
2023/01/16 06:42:35;;;;;;;17.02;8.95;;;3.10;99.90;;;;;;4956849;28;20062;-70
2023/01/16 06:45:02;;;;;;;15.02;8.27;;;3.20;99.90;;;;;;4952049;28;20055;-70
2023/01/16 06:47:30;;;;;;;17.35;9.45;;;3.20;99.90;;;;;;4955763;28;20073;-70
2023/01/16 06:49:59;;;;;;;17.90;8.55;;;3.20;99.90;;;;;;4970603;28;20480;-70
2023/01/16 06:52:26;;;;;;;17.42;8.48;;;3.20;99.90;;;;;;4973141;28;20467;-70
2023/01/16 06:54:55;;;;;;;16.33;8.95;;;3.10;99.90;;;;;;4958703;28;20073;-70
2023/01/16 06:57:22;;;;;;;19.13;8.25;;;3.10;99.90;;;;;;4965834;28;20082;-70
2023/01/16 06:59:50;;;;;;;14.02;7.80;;;3.10;99.90;;;;;;4970725;28;20538;-70
2023/01/16 07:02:17;;;;;;;16.10;8.20;;;3.10;99.90;;;;;;4969891;28;20122;-70
2023/01/16 07:04:44;;;;;;;16.35;8.32;;;3.10;99.90;;;;;;4953806;28;20487;-70
2023/01/16 07:07:11;;;;;;;13.93;8.45;;;3.10;99.90;;;;;;4957742;28;20051;-70
2023/01/16 07:09:38;;;;;;;14.80;8.02;;;3.00;99.90;;;;;;4971458;28;20046;-69
2023/01/16 07:12:06;;;;;;;12.35;7.80;;;3.00;99.90;;;;;;4973001;28;20502;-70
2023/01/16 07:22:46;;;;;;;10.38;6.50;;;3.00;99.90;;;;;;4970446;28;20133;-69
2023/01/16 07:25:16;;;;;;;14.10;6.63;;;3.00;99.90;;;;;;4970495;28;20066;-70
2023/01/16 07:27:47;;;;;;;14.27;6.65;;;3.00;99.90;;;;;;4954655;28;20055;-69
2023/01/16 07:30:15;;;;;;;14.27;6.90;;;3.00;99.90;;;;;;4970192;28;20134;-69
2023/01/16 07:32:43;;;;;;;10.32;6.50;;;3.00;99.90;;;;;;4971078;28;20053;-69
2023/01/16 07:35:10;;;;;;;17.13;7.75;;;3.00;99.90;;;;;;4970114;28;20054;-68
2023/01/16 07:37:38;;;;;;;14.45;7.63;;;3.10;99.90;;;;;;4971242;28;20153;-69
2023/01/16 07:40:06;;;;;;;16.35;6.90;;;3.00;99.90;;;;;;4952161;28;20082;-68
2023/01/16 07:42:33;;;;;;;16.38;6.30;;;3.00;99.90;;;;;;4956036;28;20534;-68
2023/01/16 07:45:02;;;;;;;11.90;6.13;;;3.00;99.90;;;;;;4970582;28;20054;-69
2023/01/16 07:47:28;;;;;;;14.75;6.30;;;3.00;99.90;;;;;;4970605;28;20043;-69
2023/01/16 07:49:56;;;;;;;10.13;6.32;;;3.00;99.90;;;;;;4957063;28;20070;-68
2023/01/16 07:52:23;;;;;;;10.95;6.93;;;3.00;99.90;;;;;;4974213;28;20082;-68
2023/01/16 07:54:50;;;;;;;15.52;6.13;;;3.00;99.90;;;;;;4958374;28;20074;-67
2023/01/16 07:57:17;;;;;;;9.70;5.53;;;3.00;99.90;;;;;;4974477;28;20042;-68
2023/01/16 07:59:44;;;;;;;9.90;6.20;;;3.00;99.90;;;;;;4957102;28;20062;-68
2023/01/16 08:02:13;;;;;;;10.48;5.68;;;3.00;99.90;;;;;;4952841;28;20058;-68
2023/01/16 08:04:40;;;;;;;15.07;6.28;;;3.00;99.90;;;;;;4956106;28;20053;-68
2023/01/16 08:07:07;;;;;;;17.75;6.65;;;3.00;99.90;;;;;;4967226;28;20058;-67
2023/01/16 08:09:34;;;;;;;14.07;6.35;;;3.00;99.90;;;;;;4965398;28;20534;-67
2023/01/16 08:12:01;;;;;;;10.82;5.95;;;3.10;99.90;;;;;;4950795;28;20507;-67
2023/01/16 08:14:28;;;;;;;17.45;6.38;;;3.00;99.90;;;;;;4954323;28;20054;-68
2023/01/16 08:16:55;;;;;;;9.55;6.30;;;3.00;99.90;;;;;;4961057;28;20054;-67
2023/01/16 08:19:23;;;;;;;11.30;6.43;;;3.10;99.90;;;;;;4950821;28;20065;-67
2023/01/16 08:21:50;;;;;;;13.00;6.07;;;3.10;99.90;;;;;;4966077;28;20062;-67
2023/01/16 08:24:18;;;;;;;12.63;6.40;;;3.10;99.90;;;;;;4971365;28;20410;-69
2023/01/16 08:26:45;;;;;;;9.73;6.07;;;3.10;99.90;;;;;;4969411;28;20463;-67
2023/01/16 08:29:12;;;;;;;11.10;6.07;;;3.10;99.90;;;;;;4968907;28;20525;-67
2023/01/16 08:31:38;;;;;;;14.00;5.97;;;3.10;99.90;;;;;;4956695;28;20050;-67
2023/01/16 08:34:05;;;;;;;11.18;5.65;;;3.20;99.90;;;;;;4968886;28;20422;-67
2023/01/16 08:36:34;;;;;;;11.80;5.80;;;3.20;99.90;;;;;;4968716;28;20114;-66
2023/01/16 08:39:01;;;;;;;11.00;5.30;;;3.20;99.90;;;;;;4967995;28;20410;-67
2023/01/16 08:52:42;;;;;;;9.85;5.40;;;3.40;99.90;;;;;;4953516;28;20042;-67
2023/01/16 08:55:10;;;;;;;8.95;4.90;;;3.40;99.90;;;;;;4954139;28;20423;-67
2023/01/16 08:57:37;;;;;;;10.38;5.20;;;3.50;99.90;;;;;;4954843;28;20055;-67
2023/01/16 09:00:06;;;;;;;12.73;5.40;;;3.50;99.90;;;;;;4954631;28;20050;-68
2023/01/16 09:02:35;;;;;;;9.23;5.25;;;3.60;99.90;;;;;;4953027;28;20050;-67
2023/01/16 09:05:02;;;;;;;9.88;5.75;;;3.60;99.90;;;;;;4950753;28;20053;-68
2023/01/16 09:07:29;;;;;;;8.23;5.47;;;3.70;99.90;;;;;;4967944;28;20527;-68
2023/01/16 09:09:58;;;;;;;12.23;5.20;;;3.70;99.90;;;;;;4952251;28;20055;-69
2023/01/16 09:15:09;;;;;;;11.38;5.38;;;3.60;99.90;;;;;;4954685;28;20145;-69
2023/01/16 09:17:36;;;;;;;11.02;5.75;;;3.70;99.90;;;;;;4954978;28;20066;-70
2023/01/16 09:20:04;;;;;;;9.20;5.18;;;3.70;99.90;;;;;;4974104;28;20081;-68
2023/01/16 09:22:32;;;;;;;11.88;5.20;;;3.70;99.90;;;;;;4949800;28;20074;-69
2023/01/16 09:25:01;;;;;;;9.45;5.18;;;3.80;99.90;;;;;;4968659;28;20485;-67
2023/01/16 09:27:28;;;;;;;10.13;5.03;;;3.80;99.90;;;;;;4972398;28;20047;-69
2023/01/16 09:29:55;;;;;;;7.93;4.97;;;3.90;99.90;;;;;;4968833;28;20051;-68
2023/01/16 09:32:22;;;;;;;8.20;4.82;;;3.80;99.90;;;;;;4966712;28;20050;-68
2023/01/16 09:34:49;;;;;;;12.00;5.40;;;3.80;99.90;;;;;;4968580;28;20062;-68
2023/01/16 09:37:16;;;;;;;11.63;6.07;;;3.90;99.90;;;;;;4956297;28;20054;-69
2023/01/16 09:39:43;;;;;;;7.47;5.05;;;3.80;99.90;;;;;;4955031;28;20046;-68
2023/01/16 09:45:16;;;;;;;8.25;4.70;;;3.90;99.90;;;;;;4971998;28;20035;-69
2023/01/16 09:47:49;;;;;;;8.35;4.30;;;3.90;99.90;;;;;;4969850;28;20043;-70
2023/01/16 09:50:23;;;;;;;8.65;4.40;;;3.90;99.90;;;;;;4955944;28;20487;-69
2023/01/16 09:58:38;;;;;;;7.95;4.38;;;4.00;99.90;;;;;;4972665;28;20170;-69
2023/01/16 10:01:08;;;;;;;11.32;4.07;;;4.00;99.90;;;;;;4973199;28;20054;-68
2023/01/16 10:03:41;;;;;;;6.63;4.32;;;4.00;99.90;;;;;;4973358;28;20065;-69
2023/01/16 10:06:20;;;;;;;6.10;3.83;;;4.10;99.90;;;;;;4955603;28;20054;-69
2023/01/16 10:08:59;;;;;;;5.45;3.53;;;4.10;99.90;;;;;;4956325;28;20134;-68
2023/01/16 10:11:35;;;;;;;5.85;3.95;;;4.10;99.90;;;;;;4956278;28;20074;-69
2023/01/16 10:14:17;;;;;;;6.90;3.58;;;4.10;99.90;;;;;;4955429;28;20471;-68
2023/01/16 10:16:55;;;;;;;7.25;3.33;;;4.10;99.90;;;;;;4969120;28;20116;-68
2023/01/16 10:19:35;;;;;;;7.03;3.35;;;4.10;99.90;;;;;;4956404;28;20479;-68
2023/01/16 10:22:12;;;;;;;8.50;4.22;;;4.10;99.90;;;;;;4970518;28;20053;-68
2023/01/16 10:24:50;;;;;;;7.18;3.38;;;4.10;99.90;;;;;;4972487;28;20486;-69
2023/01/16 10:27:21;;;;;;;8.35;3.55;;;4.20;99.90;;;;;;4972492;28;20062;-68
2023/01/16 10:29:55;;;;;;;4.85;3.08;;;4.10;99.90;;;;;;4973225;28;20057;-69
2023/01/16 10:32:29;;;;;;;6.35;3.70;;;4.10;99.90;;;;;;4955797;28;20054;-69
2023/01/16 10:35:03;;;;;;;6.43;3.53;;;4.20;99.90;;;;;;4955062;28;20051;-69
2023/01/16 10:37:31;;;;;;;6.18;3.40;;;4.20;99.90;;;;;;4955282;28;20051;-68
2023/01/16 10:40:01;;;;;;;9.57;3.38;;;4.20;99.90;;;;;;4953353;28;20050;-68
2023/01/16 10:50:56;;;;;;;6.47;3.20;;;4.30;99.90;;;;;;4970188;28;20097;-68
2023/01/16 10:53:23;;;;;;;6.78;2.80;;;4.20;99.90;;;;;;4970981;28;20051;-68
2023/01/16 10:55:52;;;;;;;5.65;3.50;;;4.20;99.90;;;;;;4952749;28;20054;-69
2023/01/16 10:58:27;;;;;;;4.70;2.88;;;4.10;99.90;;;;;;4970469;28;20058;-68
2023/01/16 11:00:59;;;;;;;5.55;2.67;;;4.10;99.90;;;;;;4969293;28;20133;-68
2023/01/16 11:03:33;;;;;;;6.18;3.03;;;4.10;99.90;;;;;;4954652;28;20054;-68
2023/01/16 11:06:09;;;;;;;6.70;3.13;;;4.00;99.90;;;;;;4970164;28;20067;-68
2023/01/16 11:08:36;;;;;;;4.03;2.75;;;3.90;99.90;;;;;;4952577;28;20051;-69
2023/01/16 11:11:03;;;;;;;5.82;2.80;;;3.80;99.90;;;;;;4969476;28;20059;-69
2023/01/16 11:19:20;;;;;;;4.10;2.75;;;3.70;99.90;;;;;;4960052;28;20058;-69
2023/01/16 11:21:52;;;;;;;5.25;2.88;;;3.60;99.90;;;;;;4956026;28;20050;-69
2023/01/16 11:24:22;;;;;;;3.33;2.30;;;3.60;99.90;;;;;;4970068;28;20415;-69
2023/01/16 11:26:52;;;;;;;3.97;2.10;;;3.50;99.90;;;;;;4941417;28;20415;-70
2023/01/16 11:29:23;;;;;;;2.80;2.00;;;3.50;99.90;;;;;;4958889;28;20050;-69
2023/01/16 11:31:55;;;;;;;2.35;2.05;;;3.50;99.90;;;;;;4942448;28;20109;-69
2023/01/16 11:34:25;;;;;;;4.47;2.30;;;3.40;99.90;;;;;;4939852;29;20571;-69
2023/01/16 11:36:53;;;;;;;;;;;3.40;99.90;;;;;;4958380;28;20054;-69
2023/01/16 11:39:22;;;;;;;4.07;2.58;;;3.30;99.90;;;;;;4940145;28;20295;-69
2023/01/16 11:41:51;;;;;;;2.83;2.25;;;3.40;99.90;;;;;;4939220;29;20047;-69
2023/01/16 11:47:12;;;;;;;4.70;2.70;;;3.40;99.90;;;;;;4951427;28;20054;-69
2023/01/16 11:49:40;;;;;;;4.60;2.28;;;3.40;99.90;;;;;;4955769;29;20055;-69
2023/01/16 11:52:14;;;;;;;3.65;2.55;;;3.40;99.90;;;;;;4937015;28;20047;-69
2023/01/16 11:54:41;;;;;;;3.85;2.17;;;3.40;99.90;;;;;;4937991;29;20043;-69
2023/01/16 11:57:25;;;;;;;5.57;2.40;;;3.40;99.90;;;;;;4955533;29;20055;-69
2023/01/16 12:00:24;;;;;;;4.45;2.40;;;3.40;99.90;;;;;;4938027;29;20047;-68
2023/01/16 12:03:19;;;;;;;4.88;2.50;;;3.40;99.90;;;;;;4931054;29;20047;-67
2023/01/16 12:05:57;;;;;;;3.22;2.60;;;3.40;99.90;;;;;;4954598;29;20047;-67
2023/01/16 12:08:58;;;;;;;3.72;2.40;;;3.40;99.90;;;;;;4954838;28;20043;-67
2023/01/16 12:11:35;;;;;;;5.63;3.03;;;3.40;99.90;;;;;;4952511;28;20495;-68
2023/01/16 12:14:19;;;;;;;3.33;2.30;;;3.40;99.90;;;;;;4954429;28;20062;-67
2023/01/16 12:16:58;;;;;;;12.40;2.47;;;3.40;99.90;;;;;;4937567;29;20667;-67
2023/01/16 12:20:00;;;;;;;3.47;2.05;;;3.40;99.90;;;;;;4937261;29;20055;-63
2023/01/16 12:22:44;;;;;;;3.58;2.00;;;3.40;99.90;;;;;;4918575;29;20110;-63
2023/01/16 12:25:25;;;;;;;3.60;2.15;;;3.40;99.90;;;;;;4948855;28;20110;-63
2023/01/16 12:28:03;;;;;;;2.80;2.00;;;3.40;99.90;;;;;;4972517;28;20086;-63
2023/01/16 12:30:47;;;;;;;3.75;2.35;;;3.40;99.90;;;;;;4958634;28;20058;-64
2023/01/16 12:33:26;;;;;;;2.80;1.98;;;3.40;99.90;;;;;;4972724;28;20510;-65
2023/01/16 12:36:02;;;;;;;2.85;2.30;;;3.40;99.90;;;;;;4974360;28;20046;-64
2023/01/16 12:38:36;;;;;;;3.92;2.30;;;3.40;99.90;;;;;;4973530;28;20062;-65
2023/01/16 12:44:28;;;;;;;3.83;2.40;;;3.40;99.90;;;;;;4972920;28;20081;-64
2023/01/16 12:47:10;;;;;;;4.03;2.28;;;3.40;99.90;;;;;;4970980;28;20042;-64
2023/01/16 12:49:53;;;;;;;2.80;2.10;;;3.40;99.90;;;;;;4974094;28;20055;-64
2023/01/16 12:52:34;;;;;;;4.00;2.40;;;3.50;99.90;;;;;;4973876;28;20062;-64
2023/01/16 12:55:17;;;;;;;6.65;2.38;;;3.50;99.90;;;;;;4954428;28;20050;-64
2023/01/16 12:58:03;;;;;;;3.80;2.63;;;3.50;99.90;;;;;;4973377;28;20066;-65
2023/01/16 13:00:37;;;;;;;4.28;2.60;;;3.50;99.90;;;;;;4969717;28;20116;-65
2023/01/16 13:03:22;;;;;;;4.65;2.85;;;3.60;99.90;;;;;;4971471;28;20495;-63
2023/01/16 13:05:53;;;;;;;4.45;2.70;;;3.60;99.90;;;;;;4971640;28;20051;-64
2023/01/16 13:08:25;;;;;;;5.22;2.58;;;3.70;99.90;;;;;;4955491;28;20058;-64
2023/01/16 13:13:49;;;;;;;3.85;3.00;;;3.70;99.90;;;;;;4968096;28;20060;-65
2023/01/16 13:16:21;;;;;;;4.47;2.58;;;3.70;99.90;;;;;;4970930;28;20054;-65
2023/01/16 13:18:53;;;;;;;4.95;3.00;;;3.70;99.90;;;;;;4973162;28;20057;-64
2023/01/16 13:21:23;;;;;;;4.28;2.90;;;3.70;99.90;;;;;;4955100;28;20475;-63
2023/01/16 13:23:55;;;;;;;4.00;2.80;;;3.70;99.90;;;;;;4970514;28;20058;-64
2023/01/16 13:26:25;;;;;;;7.85;3.08;;;3.80;99.90;;;;;;4972628;28;20050;-63
2023/01/16 13:28:58;;;;;;;4.90;3.00;;;3.80;99.90;;;;;;4954350;28;20124;-64
2023/01/16 13:31:31;;;;;;;6.43;3.10;;;3.80;99.90;;;;;;4971924;28;20046;-64
2023/01/16 13:34:06;;;;;;;3.28;2.78;;;3.80;99.90;;;;;;4972444;28;20053;-65
2023/01/16 13:37:03;;;;;;;5.15;3.08;;;3.80;99.90;;;;;;4971576;28;20443;-64
2023/01/16 13:40:05;;;;;;;6.40;3.50;;;3.90;99.90;;;;;;4959205;28;20057;-64
2023/01/16 13:42:33;;;;;;;3.65;2.90;;;3.90;99.90;;;;;;4955236;28;20089;-63
2023/01/16 13:47:57;;;;;;;4.70;2.92;;;3.90;99.90;;;;;;4945603;28;20059;-64
2023/01/16 13:50:26;;;;;;;2.92;2.63;;;3.90;99.90;;;;;;4972049;28;20054;-64
2023/01/16 13:52:56;;;;;;;5.18;3.00;;;3.90;99.90;;;;;;4970939;28;20066;-65
2023/01/16 13:55:33;;;;;;;3.33;2.92;;;3.90;99.90;;;;;;4951359;28;20447;-64
2023/01/16 13:58:09;;;;;;;4.43;2.92;;;3.90;99.90;;;;;;4969586;28;20085;-64
2023/01/16 14:00:38;;;;;;;3.60;2.60;;;3.90;99.90;;;;;;4972288;28;20459;-65
2023/01/16 14:03:22;;;;;;;4.32;2.95;;;4.00;99.90;;;;;;4971700;28;20073;-65
2023/01/16 14:05:51;;;;;;;4.35;3.28;;;4.00;99.90;;;;;;4954051;28;20047;-64
2023/01/16 14:09:04;;;;;;;5.38;2.90;;;4.00;99.90;;;;;;4973013;28;20065;-64
2023/01/16 14:12:00;;;;;;;6.25;2.97;;;4.00;99.90;;;;;;4953951;28;20085;-63
2023/01/16 14:17:21;;;;;;;8.90;3.15;;;4.00;99.90;;;;;;4969559;28;20522;-64
2023/01/16 14:19:54;;;;;;;4.50;3.05;;;4.00;99.90;;;;;;4952309;28;20407;-65
2023/01/16 14:25:23;;;;;;;6.00;3.22;;;4.00;99.90;;;;;;4954493;28;20078;-64